Ashland, Massachusetts
Current Conditions -  °F | °C
As of 12:53 AM on Monday 26 Jan 2015 (Local Time) from KOWD Reporting Station
Clear Clear  
Wind Chill: 11°   Ceiling: Unl
Heat Index: 19°   Visibility: 10mi
Dew Point:   Wind: 6mph
Humidity: 52%   Direction: 330°NNW
Pressure: 30.05"   Gusts: NA
Location:  42.26°N, 71.46°W
Report Text: KOWD 260553Z AUTO 33005KT 10SM CLR M07/M16 A3005 RMK AO2 SLP177 T10721156 11022 21072 51026
Loading
Personal Weather Stations






























Interactive Weather Map New forecast layout! Learn more

10-Day Weather Forecast

Advertisements
Track Severe Weather on mobile